Terminal Aerodrome Forecast
Issued by NWS

Current Version | Previous Version | Text Only | Print | Product List | Glossary On
Versions: 1 2 3 4 5 6 7 8 9 10 11 12 13 14
000
FTUS43 KOAX 012035 AAA
TAFBFF
TAF AMD
KBFF 012035Z 0121/0218 VRB04KT P6SM VCTS SCT100CB
      TEMPO 0121/0122 VRB20G30KT 5SM -TSRA SCT060 BKN100CB=

USA.gov is the U.S. government's official web portal to all federal, state and local government web resources and services.